createdAt,value
2023-06-04T00:01:28.963Z,100454.81
2023-06-04T00:03:55.949Z,100455.25
2023-06-04T00:06:22.786Z,100453.34
2023-06-04T00:08:49.568Z,100450.78
2023-06-04T00:11:16.330Z,100460.81
2023-06-04T00:13:43.036Z,100457.81
2023-06-04T00:16:09.856Z,100455.41
2023-06-04T00:18:36.636Z,100459.53
2023-06-04T00:21:03.365Z,100465.19
2023-06-04T00:23:30.116Z,100468.16
2023-06-04T00:25:56.809Z,100464.06
2023-06-04T00:28:23.490Z,100466.28
2023-06-04T00:30:50.142Z,100463.84
2023-06-04T00:33:19.013Z,100459.41
2023-06-04T00:35:45.693Z,100456.53
2023-06-04T00:38:12.423Z,100472.25
2023-06-04T00:40:39.086Z,100459.03
2023-06-04T00:43:06.729Z,100459.31
2023-06-04T00:45:33.479Z,100458.53
2023-06-04T00:48:00.371Z,100463.19
2023-06-04T00:50:27.106Z,100461.66
2023-06-04T00:52:55.312Z,100463.09
2023-06-04T00:55:22.215Z,100466.56
2023-06-04T00:57:49.052Z,100461.19
2023-06-04T01:00:16.064Z,100445.56
2023-06-04T01:02:44.985Z,100450.56
2023-06-04T01:05:17.907Z,100451.69
2023-06-04T01:07:47.912Z,100458.28
2023-06-04T01:10:15.624Z,100460.63
2023-06-04T01:12:45.660Z,100455.66
2023-06-04T01:15:12.868Z,100453.38
2023-06-04T01:17:52.651Z,100456.34
2023-06-04T01:20:22.381Z,100462.69
2023-06-04T01:23:12.406Z,100452.19
2023-06-04T01:25:41.104Z,100459.06
2023-06-04T01:28:11.833Z,100450.25
2023-06-04T01:30:49.655Z,100448.25
2023-06-04T01:33:18.997Z,100449.28
2023-06-04T01:35:46.563Z,100452.72
2023-06-04T01:38:13.555Z,100458.75
2023-06-04T01:40:40.432Z,100457.38
2023-06-04T01:43:07.208Z,100454.94
2023-06-04T01:45:34.816Z,100466.72
2023-06-04T01:48:06.027Z,100456.09
2023-06-04T01:50:36.383Z,100456.44
2023-06-04T01:53:03.239Z,100464.09
2023-06-04T01:55:34.714Z,100469.38
2023-06-04T01:58:01.917Z,100458.78
2023-06-04T02:00:28.783Z,100468.38
2023-06-04T02:02:57.388Z,100470.06
2023-06-04T02:05:24.374Z,100477.56
2023-06-04T02:07:52.536Z,100477.38
2023-06-04T02:10:20.566Z,100483.34
2023-06-04T02:13:03.713Z,100478.88
2023-06-04T02:15:32.514Z,100488.13
2023-06-04T02:18:04.012Z,100484.31
2023-06-04T02:20:30.858Z,100478.88
2023-06-04T02:22:57.609Z,100479.00
2023-06-04T02:25:25.012Z,100482.69
2023-06-04T02:27:51.814Z,100488.66
2023-06-04T02:30:18.555Z,100484.69
2023-06-04T02:32:45.678Z,100480.69
2023-06-04T02:35:22.501Z,100491.63
2023-06-04T02:37:49.504Z,100490.84
2023-06-04T02:40:16.665Z,100486.00
2023-06-04T02:42:43.505Z,100489.16
2023-06-04T02:45:11.634Z,100493.97
2023-06-04T02:47:38.684Z,100495.78
2023-06-04T02:50:06.072Z,100490.66
2023-06-04T02:52:34.269Z,100493.97
2023-06-04T02:55:00.949Z,100484.72
2023-06-04T02:57:27.626Z,100491.00
2023-06-04T02:59:56.646Z,100490.00
2023-06-04T03:02:23.536Z,100489.69
2023-06-04T03:04:52.199Z,100494.66
2023-06-04T03:07:21.909Z,100490.84
2023-06-04T03:09:48.716Z,100490.66
2023-06-04T03:12:15.874Z,100494.66
2023-06-04T03:14:42.773Z,100489.31
2023-06-04T03:17:11.743Z,100494.97
2023-06-04T03:19:39.784Z,100494.63
2023-06-04T03:22:07.546Z,100494.28
2023-06-04T03:24:39.798Z,100501.78
2023-06-04T03:27:10.488Z,100500.94
2023-06-04T03:29:38.215Z,100501.94
2023-06-04T03:32:05.846Z,100512.84
2023-06-04T03:34:35.725Z,100509.00
2023-06-04T03:37:02.921Z,100508.50
2023-06-04T03:39:29.735Z,100510.34
2023-06-04T03:41:56.645Z,100515.78
2023-06-04T03:44:23.698Z,100519.75
2023-06-04T03:46:50.900Z,100510.13
2023-06-04T03:49:20.812Z,100509.63
2023-06-04T03:51:47.658Z,100516.72
2023-06-04T03:54:20.897Z,100519.34
2023-06-04T03:56:48.165Z,100519.00
2023-06-04T03:59:17.932Z,100523.94
2023-06-04T04:01:45.076Z,100525.88
2023-06-04T04:04:13.158Z,100524.41
2023-06-04T04:06:39.873Z,100524.25
2023-06-04T04:09:08.029Z,100531.47
2023-06-04T04:11:34.835Z,100535.75
2023-06-04T04:14:04.786Z,100526.66
2023-06-04T04:16:31.528Z,100535.59
2023-06-04T04:18:58.504Z,100531.81
2023-06-04T04:21:25.306Z,100526.38
2023-06-04T04:23:53.256Z,100526.94
2023-06-04T04:26:20.291Z,100537.06
2023-06-04T04:28:47.101Z,100542.50
2023-06-04T04:31:14.054Z,100542.41
2023-06-04T04:33:41.063Z,100554.56
2023-06-04T04:36:13.785Z,100549.44
2023-06-04T04:38:41.390Z,100538.66
2023-06-04T04:41:09.603Z,100547.56
2023-06-04T04:43:38.840Z,100545.72
2023-06-04T04:46:06.025Z,100546.44
2023-06-04T04:48:33.111Z,100541.22
2023-06-04T04:51:00.147Z,100548.84
2023-06-04T04:53:27.718Z,100547.00
2023-06-04T04:55:54.409Z,100542.22
2023-06-04T04:58:21.179Z,100544.03
2023-06-04T05:00:48.993Z,100530.56
2023-06-04T05:03:16.157Z,100537.31
2023-06-04T05:05:44.631Z,100542.91
2023-06-04T05:08:15.216Z,100541.56
2023-06-04T05:10:41.827Z,100533.88
2023-06-04T05:13:08.590Z,100536.03
2023-06-04T05:15:36.433Z,100532.19
2023-06-04T05:18:04.776Z,100538.13
2023-06-04T05:20:31.934Z,100541.25
2023-06-04T05:22:58.759Z,100536.41
2023-06-04T05:25:25.513Z,100533.56
2023-06-04T05:27:55.705Z,100537.38
2023-06-04T05:30:22.881Z,100532.66
2023-06-04T05:32:51.830Z,100531.78
2023-06-04T05:35:18.725Z,100530.28
2023-06-04T05:37:46.898Z,100528.75
2023-06-04T05:40:13.734Z,100527.41
2023-06-04T05:42:42.621Z,100534.44
2023-06-04T05:45:10.874Z,100526.66
2023-06-04T05:47:38.235Z,100534.72
2023-06-04T05:50:06.021Z,100529.97
2023-06-04T05:52:34.361Z,100539.84
2023-06-04T05:55:01.095Z,100541.91
2023-06-04T05:57:27.786Z,100547.69
2023-06-04T05:59:54.438Z,100548.31
2023-06-04T06:02:21.365Z,100552.25
2023-06-04T06:04:48.077Z,100555.34
2023-06-04T06:07:15.950Z,100558.81
2023-06-04T06:09:42.740Z,100563.16
2023-06-04T06:12:09.449Z,100564.81
2023-06-04T06:14:36.839Z,100569.09
2023-06-04T06:17:04.223Z,100560.41
2023-06-04T06:19:31.070Z,100568.59
2023-06-04T06:21:59.848Z,100576.00
2023-06-04T06:24:27.660Z,100578.88
2023-06-04T06:26:54.345Z,100585.09
2023-06-04T06:29:22.614Z,100582.22
2023-06-04T06:31:49.335Z,100581.56
2023-06-04T06:34:16.184Z,100583.81
2023-06-04T06:36:43.012Z,100578.97
2023-06-04T06:39:10.135Z,100583.22
2023-06-04T06:41:38.111Z,100581.34
2023-06-04T06:44:05.318Z,100591.38
2023-06-04T06:46:32.005Z,100589.34
2023-06-04T06:48:58.925Z,100580.91
2023-06-04T06:51:25.761Z,100581.50
2023-06-04T06:53:52.460Z,100584.88
2023-06-04T06:56:19.323Z,100585.19
2023-06-04T06:58:46.913Z,100574.03
2023-06-04T07:01:14.148Z,100578.22
2023-06-04T07:03:41.066Z,100583.69
2023-06-04T07:06:07.796Z,100581.44
2023-06-04T07:08:34.796Z,100581.41
2023-06-04T07:11:03.378Z,100578.72
2023-06-04T07:13:30.201Z,100581.63
2023-06-04T07:15:56.901Z,100581.19
2023-06-04T07:18:23.548Z,100575.91
2023-06-04T07:20:50.943Z,100573.84
2023-06-04T07:23:17.795Z,100579.97
2023-06-04T07:25:44.535Z,100573.75
2023-06-04T07:28:11.357Z,100584.63
2023-06-04T07:30:39.450Z,100567.28
2023-06-04T07:33:07.509Z,100573.66
2023-06-04T07:35:34.380Z,100576.50
2023-06-04T07:38:01.062Z,100574.34
2023-06-04T07:40:27.781Z,100580.47
2023-06-04T07:42:54.608Z,100578.25
2023-06-04T07:45:21.301Z,100582.25
2023-06-04T07:47:48.138Z,100576.88
2023-06-04T07:50:14.953Z,100573.94
2023-06-04T07:52:41.644Z,100573.09
2023-06-04T07:55:09.609Z,100577.34
2023-06-04T07:57:37.396Z,100574.88
2023-06-04T08:00:06.896Z,100576.16
2023-06-04T08:02:33.659Z,100578.81
2023-06-04T08:05:01.318Z,100577.06
2023-06-04T08:07:28.112Z,100578.47
2023-06-04T08:09:56.805Z,100578.00
2023-06-04T08:12:25.222Z,100577.72
2023-06-04T08:14:51.898Z,100580.31
2023-06-04T08:17:18.672Z,100586.75
2023-06-04T08:19:45.509Z,100582.34
2023-06-04T08:22:12.703Z,100578.75
2023-06-04T08:24:40.819Z,100583.97
2023-06-04T08:27:09.497Z,100580.09
2023-06-04T08:29:37.973Z,100578.44
2023-06-04T08:32:05.201Z,100576.78
2023-06-04T08:34:32.180Z,100575.41
2023-06-04T08:36:58.836Z,100569.94
2023-06-04T08:39:26.036Z,100570.22
2023-06-04T08:41:55.661Z,100572.03
2023-06-04T08:44:22.292Z,100575.53
2023-06-04T08:46:54.248Z,100577.50
2023-06-04T08:49:23.448Z,100569.78
2023-06-04T08:51:50.391Z,100569.50
2023-06-04T08:54:17.058Z,100567.63
2023-06-04T08:56:45.354Z,100571.16
2023-06-04T08:59:12.355Z,100568.19
2023-06-04T09:01:39.485Z,100572.06
2023-06-04T09:04:09.967Z,100574.38
2023-06-04T09:06:39.037Z,100579.03
2023-06-04T09:09:11.535Z,100585.19
2023-06-04T09:11:50.202Z,100582.47
2023-06-04T09:14:19.735Z,100575.13
2023-06-04T09:16:46.318Z,100575.69
2023-06-04T09:19:13.095Z,100584.88
2023-06-04T09:21:54.245Z,100582.13
2023-06-04T09:24:22.372Z,100580.16
2023-06-04T09:26:50.472Z,100586.22
2023-06-04T09:29:19.253Z,100564.69
2023-06-04T09:31:58.741Z,100579.25
2023-06-04T09:34:30.103Z,100584.47
2023-06-04T09:36:57.695Z,100577.16
2023-06-04T09:39:24.590Z,100588.06
2023-06-04T09:42:04.081Z,100580.94
2023-06-04T09:44:31.525Z,100579.56
2023-06-04T09:46:59.375Z,100574.94
2023-06-04T09:49:26.623Z,100583.91
2023-06-04T09:51:53.355Z,100572.84
2023-06-04T09:54:23.574Z,100581.47
2023-06-04T09:56:50.264Z,100584.16
2023-06-04T09:59:19.052Z,100577.97
2023-06-04T10:01:46.528Z,100573.69
2023-06-04T10:04:16.133Z,100577.81
2023-06-04T10:06:43.856Z,100578.16
2023-06-04T10:09:10.703Z,100575.34
2023-06-04T10:11:48.585Z,100573.22
2023-06-04T10:14:20.038Z,100573.50
2023-06-04T10:16:49.058Z,100569.41
2023-06-04T10:19:17.626Z,100569.09
2023-06-04T10:21:45.155Z,100563.25
2023-06-04T10:24:13.804Z,100570.28
2023-06-04T10:26:41.877Z,100563.44
2023-06-04T10:29:09.624Z,100561.00
2023-06-04T10:31:38.400Z,100554.09
2023-06-04T10:34:05.227Z,100560.72
2023-06-04T10:36:31.925Z,100548.41
2023-06-04T10:38:59.875Z,100554.19
2023-06-04T10:41:27.742Z,100546.66
2023-06-04T10:44:02.908Z,100554.41
2023-06-04T10:46:41.210Z,100552.03
2023-06-04T10:49:10.483Z,100552.81
2023-06-04T10:51:39.870Z,100558.34
2023-06-04T10:54:06.493Z,100549.69
2023-06-04T10:56:38.626Z,100546.97
2023-06-04T10:59:18.859Z,100542.31
2023-06-04T11:01:47.045Z,100537.94
2023-06-04T11:04:24.721Z,100549.91
2023-06-04T11:07:09.916Z,100551.03
2023-06-04T11:09:38.313Z,100540.28
2023-06-04T11:12:08.395Z,100540.69
2023-06-04T11:14:35.046Z,100537.84
2023-06-04T11:17:16.038Z,100528.31
2023-06-04T11:19:42.761Z,100525.56
2023-06-04T11:22:13.553Z,100527.28
2023-06-04T11:24:40.273Z,100524.78
2023-06-04T11:27:14.913Z,100521.56
2023-06-04T11:29:44.680Z,100523.53
2023-06-04T11:32:21.851Z,100516.97
2023-06-04T11:34:48.531Z,100533.06
2023-06-04T11:37:15.221Z,100514.31
2023-06-04T11:39:44.118Z,100515.38
2023-06-04T11:42:11.614Z,100515.22
2023-06-04T11:44:39.537Z,100516.56
2023-06-04T11:47:09.204Z,100515.50
2023-06-04T11:49:37.591Z,100513.28
2023-06-04T11:52:05.352Z,100513.31
2023-06-04T11:54:38.062Z,100502.72
2023-06-04T11:57:06.152Z,100509.22
2023-06-04T11:59:33.219Z,100506.22
2023-06-04T12:02:00.245Z,100512.22
2023-06-04T12:04:32.120Z,100515.19
2023-06-04T12:07:01.445Z,100508.41
2023-06-04T12:09:29.792Z,100498.59
2023-06-04T12:12:04.281Z,100498.03
2023-06-04T12:14:31.306Z,100499.69
2023-06-04T12:17:02.363Z,100498.03
2023-06-04T12:19:29.530Z,100496.16
2023-06-04T12:22:05.704Z,100495.06
2023-06-04T12:24:37.217Z,100492.63
2023-06-04T12:27:12.384Z,100488.25
2023-06-04T12:29:39.135Z,100483.91
2023-06-04T12:32:11.337Z,100481.19
2023-06-04T12:34:42.643Z,100481.19
2023-06-04T12:37:09.839Z,100474.09
2023-06-04T12:39:38.145Z,100478.97
2023-06-04T12:42:08.138Z,100480.88
2023-06-04T12:44:36.705Z,100485.53
2023-06-04T12:47:04.749Z,100478.19
2023-06-04T12:49:32.893Z,100481.75
2023-06-04T12:52:01.237Z,100476.25
2023-06-04T12:54:28.437Z,100477.66
2023-06-04T12:56:57.592Z,100475.44
2023-06-04T12:59:26.662Z,100476.59
2023-06-04T13:01:53.959Z,100470.31
2023-06-04T13:04:20.742Z,100472.47
2023-06-04T13:06:47.685Z,100458.78
2023-06-04T13:11:45.638Z,100459.44
2023-06-04T13:14:12.791Z,100454.50
2023-06-04T13:16:40.120Z,100446.34
2023-06-04T13:19:07.749Z,100452.31
2023-06-04T13:21:36.065Z,100447.94
2023-06-04T13:24:02.893Z,100440.28
2023-06-04T13:26:29.611Z,100436.50
2023-06-04T13:28:57.364Z,100434.06
2023-06-04T13:31:24.058Z,100434.34
2023-06-04T13:33:50.785Z,100433.81
2023-06-04T13:36:17.481Z,100433.53
2023-06-04T13:38:44.578Z,100437.00
2023-06-04T13:41:11.558Z,100438.56
2023-06-04T13:43:38.592Z,100437.75
2023-06-04T13:46:05.679Z,100433.44
2023-06-04T13:48:32.699Z,100428.44
2023-06-04T13:50:59.511Z,100440.69
2023-06-04T13:53:26.342Z,100427.50
2023-06-04T13:55:58.946Z,100429.09
2023-06-04T13:58:28.683Z,100422.06
2023-06-04T14:00:55.838Z,100425.53
2023-06-04T14:03:22.971Z,100422.38
2023-06-04T14:05:49.954Z,100417.81
2023-06-04T14:08:17.115Z,100433.72
2023-06-04T14:10:44.068Z,100429.28
2023-06-04T14:13:11.191Z,100434.22
2023-06-04T14:15:38.670Z,100435.78
2023-06-04T14:18:06.128Z,100433.31
2023-06-04T14:20:33.134Z,100437.81
2023-06-04T14:23:00.814Z,100433.84
2023-06-04T14:25:27.933Z,100427.97
2023-06-04T14:27:54.706Z,100438.09
2023-06-04T14:30:21.679Z,100440.56
2023-06-04T14:32:48.590Z,100434.66
2023-06-04T14:35:15.529Z,100440.66
2023-06-04T14:37:42.442Z,100439.31
2023-06-04T14:40:09.599Z,100436.41
2023-06-04T14:42:36.301Z,100428.63
2023-06-04T14:45:03.316Z,100434.19
2023-06-04T14:47:30.009Z,100423.03
2023-06-04T14:49:56.794Z,100425.22
2023-06-04T14:52:23.496Z,100426.31
2023-06-04T14:54:50.311Z,100435.97
2023-06-04T14:57:19.940Z,100428.31
2023-06-04T14:59:49.196Z,100427.66
2023-06-04T15:02:20.499Z,100426.09
2023-06-04T15:04:49.988Z,100426.69
2023-06-04T15:07:16.736Z,100414.66
2023-06-04T15:09:43.504Z,100414.25
2023-06-04T15:12:10.261Z,100413.66
2023-06-04T15:14:36.943Z,100406.97
2023-06-04T15:17:07.409Z,100397.84
2023-06-04T15:19:34.093Z,100385.22
2023-06-04T15:22:00.776Z,100391.56
2023-06-04T15:24:27.660Z,100392.22
2023-06-04T15:26:54.439Z,100395.63
2023-06-04T15:29:21.255Z,100402.56
2023-06-04T15:31:48.021Z,100392.66
2023-06-04T15:34:14.761Z,100388.22
2023-06-04T15:36:41.571Z,100388.09
2023-06-04T15:39:09.286Z,100391.53
2023-06-04T15:41:35.921Z,100402.25
2023-06-04T15:44:03.556Z,100405.25
2023-06-04T15:46:31.132Z,100398.94
2023-06-04T15:48:57.956Z,100406.63
2023-06-04T15:51:24.727Z,100404.13
2023-06-04T15:53:51.870Z,100405.78
2023-06-04T15:56:20.085Z,100402.81
2023-06-04T15:58:46.896Z,100407.16
2023-06-04T16:01:13.712Z,100409.88
2023-06-04T16:03:40.525Z,100407.38
2023-06-04T16:06:07.556Z,100404.38
2023-06-04T16:08:34.608Z,100408.84
2023-06-04T16:11:01.289Z,100406.53
2023-06-04T16:13:27.947Z,100411.03
2023-06-04T16:15:56.756Z,100410.22
2023-06-04T16:18:23.572Z,100411.47
2023-06-04T16:20:50.368Z,100407.28
2023-06-04T16:23:17.234Z,100411.34
2023-06-04T16:25:43.958Z,100412.50
2023-06-04T16:28:10.793Z,100416.44
2023-06-04T16:30:37.832Z,100418.03
2023-06-04T16:33:04.756Z,100412.88
2023-06-04T16:35:32.977Z,100409.59
2023-06-04T16:38:00.251Z,100413.75
2023-06-04T16:40:26.980Z,100407.41
2023-06-04T16:42:54.368Z,100408.91
2023-06-04T16:45:21.113Z,100400.47
2023-06-04T16:47:49.705Z,100405.28
2023-06-04T16:50:16.808Z,100396.72
2023-06-04T16:52:43.684Z,100385.72
2023-06-04T16:55:10.662Z,100390.66
2023-06-04T16:57:37.500Z,100395.81
2023-06-04T17:00:17.673Z,100384.38
2023-06-04T17:02:52.276Z,100390.81
2023-06-04T17:05:25.094Z,100389.34
2023-06-04T17:07:52.955Z,100383.34
2023-06-04T17:10:19.896Z,100383.28
2023-06-04T17:12:46.831Z,100382.63
2023-06-04T17:15:14.150Z,100377.59
2023-06-04T17:17:40.998Z,100382.53
2023-06-04T17:20:08.420Z,100387.66
2023-06-04T17:22:35.525Z,100392.47
2023-06-04T17:25:02.426Z,100391.09
2023-06-04T17:27:29.339Z,100394.56
2023-06-04T17:29:56.088Z,100390.19
2023-06-04T17:32:22.959Z,100395.47
2023-06-04T17:34:51.327Z,100394.84
2023-06-04T17:37:17.948Z,100399.78
2023-06-04T17:39:45.335Z,100399.56
2023-06-04T17:42:12.099Z,100401.03
2023-06-04T17:44:38.805Z,100404.19
2023-06-04T17:47:07.034Z,100415.38
2023-06-04T17:49:34.096Z,100415.31
2023-06-04T17:52:01.548Z,100411.44
2023-06-04T17:54:28.281Z,100423.03
2023-06-04T17:56:54.977Z,100419.28
2023-06-04T17:59:21.648Z,100426.31
2023-06-04T18:01:48.538Z,100425.91
2023-06-04T18:04:16.775Z,100438.69
2023-06-04T18:06:43.572Z,100436.56
2023-06-04T18:09:10.276Z,100434.91
2023-06-04T18:11:36.974Z,100434.00
2023-06-04T18:14:06.070Z,100431.00
2023-06-04T18:16:32.866Z,100434.16
2023-06-04T18:18:59.529Z,100447.31
2023-06-04T18:21:26.796Z,100448.50
2023-06-04T18:23:54.504Z,100445.38
2023-06-04T18:26:21.810Z,100446.56
2023-06-04T18:28:48.594Z,100446.78
2023-06-04T18:31:15.420Z,100449.13
2023-06-04T18:34:01.766Z,100452.94
2023-06-04T18:36:29.664Z,100465.34
2023-06-04T18:38:56.624Z,100460.59
2023-06-04T18:41:23.720Z,100474.13
2023-06-04T18:43:51.057Z,100471.84
2023-06-04T18:46:18.956Z,100479.25
2023-06-04T18:48:49.023Z,100476.28
2023-06-04T18:51:15.630Z,100477.59
2023-06-04T18:53:42.360Z,100480.25
2023-06-04T18:56:09.300Z,100484.94
2023-06-04T18:58:36.353Z,100482.69
2023-06-04T19:01:03.036Z,100491.50
2023-06-04T19:03:30.905Z,100492.44
2023-06-04T19:05:57.674Z,100500.19
2023-06-04T19:08:24.436Z,100504.44
2023-06-04T19:10:53.092Z,100495.53
2023-06-04T19:13:19.989Z,100501.59
2023-06-04T19:15:46.715Z,100505.69
2023-06-04T19:18:13.484Z,100512.41
2023-06-04T19:20:40.174Z,100512.13
2023-06-04T19:23:07.389Z,100507.34
2023-06-04T19:25:34.075Z,100509.06
2023-06-04T19:28:00.747Z,100511.53
2023-06-04T19:30:27.370Z,100514.38
2023-06-04T19:32:55.342Z,100523.13
2023-06-04T19:35:22.092Z,100524.53
2023-06-04T19:37:48.862Z,100516.72
2023-06-04T19:40:18.515Z,100528.28
2023-06-04T19:42:45.561Z,100524.34
2023-06-04T19:45:12.825Z,100526.03
2023-06-04T19:47:39.772Z,100532.50
2023-06-04T19:50:07.038Z,100528.31
2023-06-04T19:52:33.752Z,100524.25
2023-06-04T19:55:00.449Z,100530.25
2023-06-04T19:57:27.562Z,100528.50
2023-06-04T19:59:54.261Z,100527.25
2023-06-04T20:02:21.050Z,100530.56
2023-06-04T20:04:47.747Z,100529.28
2023-06-04T20:07:14.653Z,100529.41
2023-06-04T20:09:41.366Z,100531.47
2023-06-04T20:12:08.159Z,100524.50
2023-06-04T20:14:34.938Z,100524.34
2023-06-04T20:17:01.780Z,100528.63
2023-06-04T20:19:28.713Z,100531.63
2023-06-04T20:21:55.648Z,100527.88
2023-06-04T20:24:23.337Z,100528.78
2023-06-04T20:26:50.136Z,100529.94
2023-06-04T20:29:16.769Z,100520.56
2023-06-04T20:31:43.554Z,100520.56
2023-06-04T20:34:10.196Z,100521.88
2023-06-04T20:36:38.385Z,100516.91
2023-06-04T20:39:05.055Z,100519.59
2023-06-04T20:41:31.748Z,100521.41
2023-06-04T20:43:58.532Z,100518.16
2023-06-04T20:46:25.269Z,100525.84
2023-06-04T20:48:52.245Z,100520.72
2023-06-04T20:51:19.712Z,100517.63
2023-06-04T20:53:50.551Z,100517.63
2023-06-04T20:56:17.459Z,100514.56
2023-06-04T20:58:44.201Z,100520.34
2023-06-04T21:01:12.236Z,100515.59
2023-06-04T21:03:39.093Z,100517.84
2023-06-04T21:06:06.263Z,100515.38
2023-06-04T21:08:34.374Z,100519.50
2023-06-04T21:11:01.014Z,100523.63
2023-06-04T21:13:27.672Z,100517.06
2023-06-04T21:15:54.389Z,100516.66
2023-06-04T21:18:22.376Z,100520.81
2023-06-04T21:20:49.038Z,100524.13
2023-06-04T21:23:15.854Z,100531.78
2023-06-04T21:25:44.006Z,100536.56
2023-06-04T21:28:10.836Z,100533.03
2023-06-04T21:30:38.830Z,100534.66
2023-06-04T21:33:05.598Z,100534.09
2023-06-04T21:35:32.276Z,100530.78
2023-06-04T21:37:59.024Z,100532.47
2023-06-04T21:40:26.032Z,100538.22
2023-06-04T21:42:52.745Z,100540.28
2023-06-04T21:45:19.763Z,100537.78
2023-06-04T21:47:46.802Z,100537.38
2023-06-04T21:50:13.667Z,100531.63
2023-06-04T21:52:40.525Z,100534.28
2023-06-04T21:55:07.556Z,100532.00
2023-06-04T21:57:34.241Z,100531.00
2023-06-04T22:00:01.055Z,100532.03
2023-06-04T22:02:27.732Z,100529.56
2023-06-04T22:04:54.403Z,100531.19
2023-06-04T22:07:21.138Z,100529.13
2023-06-04T22:09:47.744Z,100516.38
2023-06-04T22:12:14.471Z,100521.72
2023-06-04T22:14:41.301Z,100520.88
2023-06-04T22:17:07.983Z,100517.16
2023-06-04T22:19:34.687Z,100516.16
2023-06-04T22:22:01.549Z,100518.63
2023-06-04T22:24:28.192Z,100524.56
2023-06-04T22:26:54.869Z,100525.78
2023-06-04T22:29:21.621Z,100523.75
2023-06-04T22:31:48.500Z,100524.56
2023-06-04T22:34:15.349Z,100514.22
2023-06-04T22:36:43.636Z,100510.94
2023-06-04T22:39:10.615Z,100514.47
2023-06-04T22:41:37.286Z,100511.56
2023-06-04T22:44:04.237Z,100510.06
2023-06-04T22:46:31.441Z,100509.81
2023-06-04T22:48:58.135Z,100509.59
2023-06-04T22:51:25.031Z,100513.75
2023-06-04T22:53:51.986Z,100512.06
2023-06-04T22:56:18.706Z,100520.34
2023-06-04T22:58:46.655Z,100512.94
2023-06-04T23:01:13.456Z,100516.00
2023-06-04T23:03:41.177Z,100507.09
2023-06-04T23:06:07.978Z,100511.66
2023-06-04T23:08:34.658Z,100504.03
2023-06-04T23:11:01.366Z,100510.72
2023-06-04T23:13:28.128Z,100511.63
2023-06-04T23:15:54.806Z,100508.94
2023-06-04T23:18:21.504Z,100505.81
2023-06-04T23:20:48.289Z,100504.16
2023-06-04T23:23:14.948Z,100503.47
2023-06-04T23:25:41.732Z,100505.31
2023-06-04T23:28:08.550Z,100508.28
2023-06-04T23:30:35.360Z,100511.97
2023-06-04T23:33:03.916Z,100500.91
2023-06-04T23:35:30.673Z,100500.28
2023-06-04T23:37:57.336Z,100498.88
2023-06-04T23:40:24.032Z,100505.16
2023-06-04T23:42:50.903Z,100498.16
2023-06-04T23:45:17.617Z,100501.03
2023-06-04T23:47:44.265Z,100504.56
2023-06-04T23:50:11.384Z,100507.00
2023-06-04T23:52:37.996Z,100507.81
2023-06-04T23:55:04.959Z,100516.03
2023-06-04T23:57:31.707Z,100509.72
2023-06-04T23:59:58.400Z,100516.03
